createdAt,value
2022-07-28T00:01:23.376Z,13.48
2022-07-28T00:03:49.746Z,14.12
2022-07-28T00:06:16.330Z,14.47
2022-07-28T00:08:45.099Z,14.52
2022-07-28T00:11:11.526Z,13.90
2022-07-28T00:13:38.005Z,14.22
2022-07-28T00:16:04.922Z,14.48
2022-07-28T00:18:31.573Z,14.31
2022-07-28T00:20:58.047Z,13.88
2022-07-28T00:23:35.901Z,14.41
2022-07-28T00:26:07.158Z,14.12
2022-07-28T00:28:33.549Z,13.85
2022-07-28T00:31:05.405Z,13.94
2022-07-28T00:33:35.295Z,14.36
2022-07-28T00:36:01.693Z,14.10
2022-07-28T00:38:28.208Z,14.32
2022-07-28T00:41:13.709Z,13.95
2022-07-28T00:43:42.454Z,14.28
2022-07-28T00:46:09.756Z,14.26
2022-07-28T00:48:42.730Z,14.14
2022-07-28T00:51:09.966Z,14.23
2022-07-28T00:53:38.062Z,14.19
2022-07-28T00:56:06.956Z,13.14
2022-07-28T00:58:35.294Z,13.80
2022-07-28T01:01:01.817Z,13.92
2022-07-28T01:03:29.126Z,13.59
2022-07-28T01:06:17.510Z,13.96
2022-07-28T01:09:14.002Z,13.50
2022-07-28T01:11:57.062Z,13.71
2022-07-28T01:14:36.976Z,13.80
2022-07-28T01:17:11.992Z,13.73
2022-07-28T01:19:58.389Z,13.67
2022-07-28T01:22:29.800Z,13.45
2022-07-28T01:25:24.314Z,13.64
2022-07-28T01:28:10.412Z,13.49
2022-07-28T01:30:43.332Z,13.03
2022-07-28T01:33:18.809Z,13.60
2022-07-28T01:35:51.296Z,13.67
2022-07-28T01:38:20.857Z,13.49
2022-07-28T01:40:48.575Z,13.57
2022-07-28T01:43:20.485Z,13.09
2022-07-28T01:45:47.681Z,13.54
2022-07-28T01:48:17.114Z,13.70
2022-07-28T01:50:44.950Z,13.68
2022-07-28T01:53:13.930Z,13.74
2022-07-28T01:55:43.325Z,13.57
2022-07-28T01:58:12.783Z,13.76
2022-07-28T02:00:40.649Z,13.76
2022-07-28T02:03:08.101Z,13.69
2022-07-28T02:05:37.293Z,13.65
2022-07-28T02:08:05.941Z,13.53
2022-07-28T02:10:34.646Z,13.55
2022-07-28T02:13:02.236Z,13.52
2022-07-28T02:15:30.836Z,13.52
2022-07-28T02:17:58.995Z,13.49
2022-07-28T02:20:25.839Z,13.48
2022-07-28T02:22:53.678Z,13.44
2022-07-28T02:25:21.386Z,13.23
2022-07-28T02:27:57.002Z,13.10
2022-07-28T02:30:41.836Z,13.13
2022-07-28T02:33:14.576Z,13.23
2022-07-28T02:35:49.354Z,13.20
2022-07-28T02:38:28.681Z,13.17
2022-07-28T02:40:59.568Z,13.13
2022-07-28T02:43:49.791Z,13.05
2022-07-28T02:46:30.732Z,13.06
2022-07-28T02:49:05.269Z,13.01
2022-07-28T02:51:34.446Z,12.63
2022-07-28T02:54:01.629Z,12.82
2022-07-28T02:56:30.043Z,12.71
2022-07-28T02:58:57.521Z,12.62
2022-07-28T03:01:25.135Z,12.57
2022-07-28T03:03:51.911Z,12.38
2022-07-28T03:06:26.588Z,12.38
2022-07-28T03:08:55.958Z,12.33
2022-07-28T03:11:22.317Z,12.16
2022-07-28T03:13:48.943Z,12.24
2022-07-28T03:16:15.514Z,12.20
2022-07-28T03:18:42.010Z,12.14
2022-07-28T03:21:08.615Z,11.83
2022-07-28T03:23:38.572Z,12.11
2022-07-28T03:26:32.399Z,11.87
2022-07-28T03:29:00.276Z,11.99
2022-07-28T03:31:28.024Z,11.93
2022-07-28T03:33:54.929Z,11.82
2022-07-28T03:36:29.691Z,11.78
2022-07-28T03:39:02.256Z,11.75
2022-07-28T03:41:30.035Z,11.55
2022-07-28T03:43:58.396Z,11.69
2022-07-28T03:46:26.773Z,11.68
2022-07-28T03:48:54.048Z,11.48
2022-07-28T03:51:20.547Z,11.50
2022-07-28T03:53:47.173Z,11.32
2022-07-28T03:56:13.634Z,11.54
2022-07-28T03:58:39.994Z,11.42
2022-07-28T04:01:06.558Z,11.64
2022-07-28T04:03:42.951Z,11.66
2022-07-28T04:06:12.009Z,11.53
2022-07-28T04:08:38.717Z,11.71
2022-07-28T04:11:05.532Z,11.64
2022-07-28T04:13:32.159Z,11.52
2022-07-28T04:16:00.260Z,11.91
2022-07-28T04:18:26.762Z,12.01
2022-07-28T04:20:53.218Z,12.43
2022-07-28T04:23:20.836Z,12.65
2022-07-28T04:25:47.374Z,13.01
2022-07-28T04:28:13.945Z,13.85
2022-07-28T04:30:43.779Z,14.33
2022-07-28T04:33:10.965Z,14.18
2022-07-28T04:35:37.834Z,14.01
2022-07-28T04:38:04.341Z,13.86
2022-07-28T04:40:30.732Z,14.25
2022-07-28T04:42:57.166Z,14.63
2022-07-28T04:45:23.617Z,14.96
2022-07-28T04:47:51.633Z,15.23
2022-07-28T04:50:20.647Z,15.26
2022-07-28T04:52:50.139Z,15.93
2022-07-28T04:55:17.437Z,16.11
2022-07-28T04:57:44.105Z,15.74
2022-07-28T05:00:14.128Z,15.12
2022-07-28T05:02:42.032Z,15.17
2022-07-28T05:05:09.837Z,15.30
2022-07-28T05:07:37.642Z,15.87
2022-07-28T05:10:06.145Z,16.55
2022-07-28T05:12:32.535Z,17.14
2022-07-28T05:14:59.823Z,17.46
2022-07-28T05:17:27.160Z,17.75
2022-07-28T05:19:53.676Z,18.01
2022-07-28T05:22:20.213Z,18.69
2022-07-28T05:24:46.592Z,18.61
2022-07-28T05:27:13.109Z,18.23
2022-07-28T05:29:47.705Z,18.24
2022-07-28T05:32:16.997Z,18.72
2022-07-28T05:34:44.904Z,19.40
2022-07-28T05:37:11.954Z,19.09
2022-07-28T05:39:38.348Z,18.58
2022-07-28T05:42:04.940Z,17.96
2022-07-28T05:44:37.248Z,17.49
2022-07-28T05:47:04.270Z,17.26
2022-07-28T05:49:31.440Z,17.08
2022-07-28T05:51:57.928Z,17.00
2022-07-28T05:54:24.374Z,16.19
2022-07-28T05:56:51.128Z,16.46
2022-07-28T05:59:17.684Z,16.24
2022-07-28T06:01:44.241Z,16.24
2022-07-28T06:04:26.716Z,15.95
2022-07-28T06:06:54.570Z,16.06
2022-07-28T06:09:20.973Z,16.10
2022-07-28T06:11:47.371Z,15.89
2022-07-28T06:14:14.047Z,16.18
2022-07-28T06:16:40.765Z,16.57
2022-07-28T06:19:07.263Z,17.05
2022-07-28T06:21:33.727Z,17.13
2022-07-28T06:24:00.165Z,17.18
2022-07-28T06:26:26.592Z,17.00
2022-07-28T06:28:53.038Z,17.00
2022-07-28T06:31:19.541Z,16.79
2022-07-28T06:33:45.978Z,16.59
2022-07-28T06:36:12.350Z,16.93
2022-07-28T06:38:38.781Z,16.50
2022-07-28T06:41:05.200Z,17.10
2022-07-28T06:43:36.771Z,17.25
2022-07-28T06:46:05.137Z,17.79
2022-07-28T06:48:31.527Z,17.49
2022-07-28T06:50:59.629Z,17.45
2022-07-28T06:53:28.037Z,17.43
2022-07-28T06:56:00.399Z,17.53
2022-07-28T06:58:26.768Z,17.82
2022-07-28T07:00:53.381Z,17.88
2022-07-28T07:03:19.813Z,18.02
2022-07-28T07:05:46.240Z,18.28
2022-07-28T07:08:17.946Z,17.57
2022-07-28T07:10:44.387Z,18.39
2022-07-28T07:13:10.798Z,18.07
2022-07-28T07:15:40.280Z,18.52
2022-07-28T07:18:06.850Z,18.68
2022-07-28T07:20:33.299Z,18.37
2022-07-28T07:22:59.653Z,18.62
2022-07-28T07:25:26.108Z,17.37
2022-07-28T07:27:52.513Z,18.79
2022-07-28T07:30:18.947Z,18.70
2022-07-28T07:32:45.440Z,18.83
2022-07-28T07:35:12.398Z,19.06
2022-07-28T07:37:38.935Z,18.40
2022-07-28T07:40:06.379Z,18.90
2022-07-28T07:42:33.175Z,18.91
2022-07-28T07:44:59.662Z,19.13
2022-07-28T07:47:26.502Z,18.82
2022-07-28T07:49:52.946Z,19.01
2022-07-28T07:52:19.538Z,18.95
2022-07-28T07:54:45.958Z,19.32
2022-07-28T07:57:12.362Z,18.94
2022-07-28T07:59:38.768Z,18.89
2022-07-28T08:02:05.720Z,18.87
2022-07-28T08:04:37.218Z,18.91
2022-07-28T08:07:04.612Z,19.14
2022-07-28T08:09:32.419Z,19.50
2022-07-28T08:11:58.815Z,19.59
2022-07-28T08:14:25.228Z,19.56
2022-07-28T08:16:52.359Z,19.77
2022-07-28T08:19:21.666Z,19.39
2022-07-28T08:21:48.384Z,19.78
2022-07-28T08:24:27.388Z,19.81
2022-07-28T08:27:01.582Z,19.93
2022-07-28T08:29:28.001Z,19.84
2022-07-28T08:31:54.474Z,20.16
2022-07-28T08:34:29.889Z,20.40
2022-07-28T08:37:04.835Z,20.45
2022-07-28T08:39:33.132Z,20.16
2022-07-28T08:42:03.066Z,19.98
2022-07-28T08:44:53.534Z,20.45
2022-07-28T08:47:21.075Z,20.51
2022-07-28T08:49:49.210Z,20.80
2022-07-28T08:52:19.923Z,20.87
2022-07-28T08:54:48.314Z,20.72
2022-07-28T08:57:22.385Z,20.58
2022-07-28T08:59:50.048Z,20.57
2022-07-28T09:02:17.139Z,20.90
2022-07-28T09:04:46.404Z,20.49
2022-07-28T09:07:13.415Z,20.84
2022-07-28T09:09:40.172Z,20.79
2022-07-28T09:12:06.850Z,21.00
2022-07-28T09:14:34.302Z,20.29
2022-07-28T09:17:01.728Z,21.41
2022-07-28T09:19:33.994Z,21.68
2022-07-28T09:22:00.975Z,21.62
2022-07-28T09:24:39.540Z,21.83
2022-07-28T09:27:11.357Z,21.75
2022-07-28T09:29:39.618Z,21.73
2022-07-28T09:32:07.578Z,21.68
2022-07-28T09:34:44.098Z,21.37
2022-07-28T09:37:28.583Z,21.61
2022-07-28T09:40:00.397Z,21.85
2022-07-28T09:42:45.788Z,20.95
2022-07-28T09:45:22.842Z,22.18
2022-07-28T09:50:27.661Z,22.37
2022-07-28T09:52:55.222Z,22.81
2022-07-28T09:55:21.578Z,22.68
2022-07-28T09:57:48.034Z,22.38
2022-07-28T10:00:28.372Z,22.19
2022-07-28T10:02:55.250Z,22.12
2022-07-28T10:05:21.719Z,22.08
2022-07-28T10:07:52.608Z,22.34
2022-07-28T10:10:22.103Z,22.15
2022-07-28T10:12:48.480Z,22.14
2022-07-28T10:15:35.958Z,22.51
2022-07-28T10:18:02.680Z,22.46
2022-07-28T10:20:29.632Z,21.58
2022-07-28T10:23:04.104Z,22.92
2022-07-28T10:25:32.392Z,23.25
2022-07-28T10:28:00.550Z,23.04
2022-07-28T10:30:34.923Z,23.19
2022-07-28T10:33:05.012Z,23.04
2022-07-28T10:35:32.384Z,23.09
2022-07-28T10:38:16.860Z,22.95
2022-07-28T10:40:46.409Z,23.03
2022-07-28T10:43:13.657Z,23.09
2022-07-28T10:46:15.618Z,22.95
2022-07-28T10:48:27.335Z,23.36
2022-07-28T10:50:55.140Z,23.78
2022-07-28T10:53:37.985Z,24.03
2022-07-28T10:56:14.317Z,24.26
2022-07-28T10:59:05.099Z,24.17
2022-07-28T11:01:52.533Z,23.97
2022-07-28T11:04:40.759Z,23.49
2022-07-28T11:07:16.799Z,23.28
2022-07-28T11:09:44.303Z,23.72
2022-07-28T11:12:15.406Z,24.13
2022-07-28T11:14:43.081Z,23.98
2022-07-28T11:17:11.301Z,24.13
2022-07-28T11:19:51.581Z,24.13
2022-07-28T11:22:28.089Z,24.35
2022-07-28T11:24:58.039Z,24.12
2022-07-28T11:27:39.822Z,24.05
2022-07-28T11:30:06.873Z,24.04
2022-07-28T11:32:51.485Z,24.34
2022-07-28T11:35:19.069Z,24.15
2022-07-28T11:38:00.877Z,24.66
2022-07-28T11:40:33.527Z,24.80
2022-07-28T11:43:35.526Z,24.74
2022-07-28T11:46:09.577Z,24.63
2022-07-28T11:48:40.251Z,24.84
2022-07-28T11:51:06.815Z,25.04
2022-07-28T11:53:35.962Z,24.97
2022-07-28T11:56:09.342Z,25.02
2022-07-28T11:58:36.658Z,25.06
2022-07-28T12:01:17.130Z,25.02
2022-07-28T12:03:56.114Z,24.07
2022-07-28T12:06:37.368Z,24.74
2022-07-28T12:09:06.500Z,24.87
2022-07-28T12:11:35.169Z,25.09
2022-07-28T12:14:03.086Z,25.57
2022-07-28T12:16:31.649Z,25.42
2022-07-28T12:19:00.550Z,25.27
2022-07-28T12:21:47.963Z,25.43
2022-07-28T12:24:19.114Z,25.74
2022-07-28T12:26:49.565Z,25.52
2022-07-28T12:29:16.768Z,25.50
2022-07-28T12:31:54.731Z,25.62
2022-07-28T12:34:22.282Z,25.57
2022-07-28T12:36:56.890Z,25.18
2022-07-28T12:39:25.552Z,25.69
2022-07-28T12:42:12.986Z,25.78
2022-07-28T12:44:42.278Z,26.23
2022-07-28T12:47:11.825Z,25.76
2022-07-28T12:49:39.809Z,25.20
2022-07-28T12:52:16.963Z,25.19
2022-07-28T12:54:43.586Z,25.28
2022-07-28T12:57:49.878Z,24.47
2022-07-28T13:00:19.776Z,25.65
2022-07-28T13:02:48.052Z,26.31
2022-07-28T13:05:33.248Z,26.91
2022-07-28T13:08:05.273Z,26.60
2022-07-28T13:10:32.580Z,26.70
2022-07-28T13:13:06.754Z,26.77
2022-07-28T13:15:33.429Z,26.00
2022-07-28T13:18:00.197Z,25.18
2022-07-28T13:20:27.013Z,25.56
2022-07-28T13:22:55.557Z,25.22
2022-07-28T13:25:22.193Z,25.72
2022-07-28T13:27:54.979Z,26.05
2022-07-28T13:30:23.441Z,25.73
2022-07-28T13:32:50.204Z,25.92
2022-07-28T13:35:18.794Z,26.13
2022-07-28T13:37:45.830Z,25.18
2022-07-28T13:40:12.693Z,25.87
2022-07-28T13:42:39.237Z,25.84
2022-07-28T13:45:06.080Z,26.06
2022-07-28T13:47:35.584Z,25.73
2022-07-28T13:50:05.671Z,25.72
2022-07-28T13:52:37.433Z,25.76
2022-07-28T13:55:06.055Z,25.40
2022-07-28T13:57:35.715Z,25.70
2022-07-28T14:00:06.972Z,26.03
2022-07-28T14:02:34.578Z,26.13
2022-07-28T14:05:01.009Z,26.01
2022-07-28T14:07:27.434Z,26.55
2022-07-28T14:09:53.854Z,26.40
2022-07-28T14:12:20.759Z,26.09
2022-07-28T14:14:48.288Z,26.55
2022-07-28T14:17:40.247Z,26.26
2022-07-28T14:20:01.907Z,26.09
2022-07-28T14:22:28.291Z,26.64
2022-07-28T14:24:54.814Z,26.39
2022-07-28T14:27:24.627Z,26.47
2022-07-28T14:29:53.674Z,25.73
2022-07-28T14:32:20.066Z,26.37
2022-07-28T14:34:46.767Z,26.64
2022-07-28T14:37:14.275Z,27.13
2022-07-28T14:39:40.775Z,27.37
2022-07-28T14:42:07.310Z,27.03
2022-07-28T14:44:34.459Z,27.05
2022-07-28T14:47:00.889Z,26.09
2022-07-28T14:49:27.909Z,25.99
2022-07-28T14:51:55.977Z,26.19
2022-07-28T14:54:22.469Z,26.09
2022-07-28T14:56:48.947Z,26.20
2022-07-28T14:59:15.351Z,25.93
2022-07-28T15:01:41.828Z,25.94
2022-07-28T15:04:10.053Z,25.63
2022-07-28T15:06:36.438Z,25.83
2022-07-28T15:09:02.914Z,25.49
2022-07-28T15:11:29.430Z,25.44
2022-07-28T15:13:55.815Z,25.68
2022-07-28T15:16:22.349Z,25.65
2022-07-28T15:18:51.461Z,25.77
2022-07-28T15:21:17.961Z,25.80
2022-07-28T15:23:45.008Z,25.22
2022-07-28T15:26:11.776Z,25.11
2022-07-28T15:28:38.478Z,24.75
2022-07-28T15:31:06.711Z,24.98
2022-07-28T15:33:47.886Z,24.44
2022-07-28T15:36:15.299Z,25.13
2022-07-28T15:38:41.790Z,24.84
2022-07-28T15:41:14.915Z,25.00
2022-07-28T15:43:42.228Z,24.42
2022-07-28T15:46:11.061Z,24.61
2022-07-28T15:48:39.700Z,24.91
2022-07-28T15:51:06.633Z,25.03
2022-07-28T15:53:33.959Z,25.04
2022-07-28T15:56:00.783Z,24.78
2022-07-28T15:58:27.272Z,24.13
2022-07-28T16:00:53.982Z,24.59
2022-07-28T16:03:22.508Z,24.49
2022-07-28T16:05:49.827Z,24.68
2022-07-28T16:08:18.294Z,24.93
2022-07-28T16:10:49.221Z,23.85
2022-07-28T16:13:20.872Z,24.87
2022-07-28T16:15:57.736Z,24.52
2022-07-28T16:18:24.254Z,24.83
2022-07-28T16:20:50.817Z,24.57
2022-07-28T16:23:17.198Z,24.70
2022-07-28T16:25:45.159Z,24.69
2022-07-28T16:28:12.459Z,24.47
2022-07-28T16:30:38.927Z,24.57
2022-07-28T16:33:05.332Z,24.72
2022-07-28T16:35:34.422Z,24.40
2022-07-28T16:38:05.116Z,24.53
2022-07-28T16:40:32.414Z,24.54
2022-07-28T16:43:02.361Z,24.48
2022-07-28T16:45:31.058Z,24.54
2022-07-28T16:47:58.024Z,24.49
2022-07-28T16:50:24.582Z,24.42
2022-07-28T16:52:52.490Z,24.38
2022-07-28T16:55:23.355Z,24.40
2022-07-28T16:57:51.016Z,24.00
2022-07-28T17:00:17.993Z,24.29
2022-07-28T17:02:44.466Z,24.21
2022-07-28T17:05:12.582Z,24.16
2022-07-28T17:07:45.880Z,23.99
2022-07-28T17:10:14.685Z,23.85
2022-07-28T17:12:41.225Z,24.14
2022-07-28T17:15:21.930Z,24.01
2022-07-28T17:17:49.056Z,23.96
2022-07-28T17:20:16.603Z,23.92
2022-07-28T17:22:44.613Z,23.79
2022-07-28T17:27:57.730Z,23.85
2022-07-28T17:30:24.163Z,23.94
2022-07-28T17:32:50.569Z,23.80
2022-07-28T17:35:34.300Z,23.76
2022-07-28T17:38:03.191Z,23.82
2022-07-28T17:40:29.945Z,23.65
2022-07-28T17:42:56.385Z,23.74
2022-07-28T17:45:23.766Z,23.57
2022-07-28T17:47:50.295Z,23.59
2022-07-28T17:50:17.647Z,23.28
2022-07-28T17:52:44.610Z,23.49
2022-07-28T17:55:31.037Z,23.36
2022-07-28T17:58:09.385Z,23.43
2022-07-28T18:00:36.616Z,23.47
2022-07-28T18:03:03.237Z,23.26
2022-07-28T18:05:40.456Z,23.33
2022-07-28T18:08:07.778Z,23.19
2022-07-28T18:10:34.746Z,22.99
2022-07-28T18:13:01.370Z,23.25
2022-07-28T18:15:28.627Z,23.13
2022-07-28T18:17:57.314Z,23.04
2022-07-28T18:20:24.385Z,23.09
2022-07-28T18:22:50.896Z,23.05
2022-07-28T18:25:17.476Z,23.05
2022-07-28T18:27:44.120Z,23.00
2022-07-28T18:30:11.158Z,22.97
2022-07-28T18:32:37.569Z,22.89
2022-07-28T18:35:04.132Z,22.70
2022-07-28T18:37:31.000Z,22.85
2022-07-28T18:39:57.534Z,22.55
2022-07-28T18:42:24.021Z,22.47
2022-07-28T18:44:50.438Z,22.62
2022-07-28T18:47:16.801Z,22.74
2022-07-28T18:49:43.246Z,22.73
2022-07-28T18:52:09.680Z,22.53
2022-07-28T18:54:36.264Z,22.62
2022-07-28T18:57:02.649Z,21.60
2022-07-28T18:59:29.120Z,22.58
2022-07-28T19:01:55.627Z,22.57
2022-07-28T19:04:22.161Z,22.32
2022-07-28T19:06:48.569Z,22.45
2022-07-28T19:09:14.981Z,22.41
2022-07-28T19:11:45.902Z,22.34
2022-07-28T19:14:14.856Z,22.15
2022-07-28T19:16:41.736Z,22.26
2022-07-28T19:19:08.195Z,21.92
2022-07-28T19:21:34.781Z,22.03
2022-07-28T19:24:01.197Z,22.00
2022-07-28T19:26:29.441Z,21.89
2022-07-28T19:28:56.169Z,21.66
2022-07-28T19:31:22.719Z,21.95
2022-07-28T19:33:49.540Z,21.89
2022-07-28T19:36:15.981Z,21.57
2022-07-28T19:38:42.763Z,21.78
2022-07-28T19:41:09.947Z,21.74
2022-07-28T19:43:36.373Z,21.58
2022-07-28T19:46:02.963Z,21.65
2022-07-28T19:48:29.435Z,21.34
2022-07-28T19:50:56.668Z,21.52
2022-07-28T19:53:25.309Z,21.54
2022-07-28T19:55:58.594Z,21.30
2022-07-28T19:58:25.472Z,21.21
2022-07-28T20:00:52.414Z,20.36
2022-07-28T20:04:02.523Z,21.37
2022-07-28T20:06:06.014Z,21.12
2022-07-28T20:08:32.732Z,21.18
2022-07-28T20:10:59.167Z,21.17
2022-07-28T20:13:25.562Z,21.01
2022-07-28T20:15:52.076Z,20.83
2022-07-28T20:18:19.215Z,20.98
2022-07-28T20:20:46.706Z,20.92
2022-07-28T20:23:14.925Z,20.83
2022-07-28T20:25:42.384Z,20.82
2022-07-28T20:28:09.073Z,20.82
2022-07-28T20:30:35.501Z,20.77
2022-07-28T20:33:02.539Z,20.72
2022-07-28T20:35:29.057Z,20.69
2022-07-28T20:37:55.513Z,20.64
2022-07-28T20:40:21.940Z,20.35
2022-07-28T20:42:52.864Z,20.61
2022-07-28T20:45:19.838Z,20.56
2022-07-28T20:47:46.264Z,20.55
2022-07-28T20:50:14.569Z,20.47
2022-07-28T20:52:41.341Z,20.21
2022-07-28T20:55:08.709Z,20.41
2022-07-28T20:57:35.224Z,20.36
2022-07-28T21:00:03.145Z,20.08
2022-07-28T21:02:29.686Z,19.14
2022-07-28T21:04:56.136Z,20.08
2022-07-28T21:08:05.472Z,20.03
2022-07-28T21:10:10.738Z,20.32
2022-07-28T21:12:38.157Z,20.21
2022-07-28T21:15:06.391Z,20.05
2022-07-28T21:17:32.912Z,20.15
2022-07-28T21:19:59.352Z,20.21
2022-07-28T21:22:25.873Z,20.25
2022-07-28T21:24:55.958Z,20.23
2022-07-28T21:27:22.835Z,20.21
2022-07-28T21:29:49.700Z,19.93
2022-07-28T21:32:16.100Z,19.98
2022-07-28T21:34:42.695Z,19.82
2022-07-28T21:37:11.455Z,19.91
2022-07-28T21:39:38.456Z,19.87
2022-07-28T21:42:08.136Z,19.93
2022-07-28T21:44:35.682Z,19.63
2022-07-28T21:47:02.076Z,19.73
2022-07-28T21:49:30.468Z,19.76
2022-07-28T21:51:56.917Z,19.71
2022-07-28T21:54:23.631Z,19.58
2022-07-28T21:56:50.147Z,19.77
2022-07-28T21:59:16.552Z,19.76
2022-07-28T22:01:43.098Z,19.52
2022-07-28T22:04:09.578Z,19.55
2022-07-28T22:06:35.998Z,19.57
2022-07-28T22:09:02.640Z,19.41
2022-07-28T22:11:29.213Z,19.36
2022-07-28T22:13:55.711Z,19.27
2022-07-28T22:16:22.243Z,19.03
2022-07-28T22:18:48.710Z,19.23
2022-07-28T22:21:15.124Z,19.33
2022-07-28T22:23:41.959Z,19.23
2022-07-28T22:26:08.422Z,19.15
2022-07-28T22:28:34.849Z,19.16
2022-07-28T22:31:08.958Z,18.48
2022-07-28T22:33:37.427Z,19.15
2022-07-28T22:36:04.799Z,19.05
2022-07-28T22:38:31.741Z,19.08
2022-07-28T22:40:58.542Z,19.08
2022-07-28T22:43:27.587Z,19.09
2022-07-28T22:45:54.067Z,18.93
2022-07-28T22:48:20.546Z,19.02
2022-07-28T22:50:47.020Z,19.02
2022-07-28T22:53:13.442Z,18.99
2022-07-28T22:55:40.313Z,18.71
2022-07-28T22:58:06.967Z,18.93
2022-07-28T23:00:36.165Z,18.66
2022-07-28T23:03:03.524Z,18.91
2022-07-28T23:05:30.426Z,18.59
2022-07-28T23:07:57.287Z,18.88
2022-07-28T23:10:25.176Z,17.87
2022-07-28T23:12:51.598Z,18.80
2022-07-28T23:15:18.086Z,18.77
2022-07-28T23:17:44.563Z,18.78
2022-07-28T23:20:11.341Z,18.83
2022-07-28T23:22:38.012Z,18.79
2022-07-28T23:25:05.046Z,18.67
2022-07-28T23:27:31.475Z,18.65
2022-07-28T23:29:57.834Z,18.63
2022-07-28T23:32:24.211Z,18.43
2022-07-28T23:34:50.652Z,18.44
2022-07-28T23:37:17.252Z,18.51
2022-07-28T23:39:43.641Z,18.58
2022-07-28T23:42:10.072Z,18.42
2022-07-28T23:44:37.876Z,18.47
2022-07-28T23:47:04.446Z,18.28
2022-07-28T23:49:31.016Z,17.89
2022-07-28T23:51:57.430Z,18.43
2022-07-28T23:54:23.827Z,18.48
2022-07-28T23:56:51.794Z,18.49
2022-07-28T23:59:18.263Z,18.50
